Cherry Point Marine Corps Ai, North Carolina
Current Conditions -  °F | °C
As of 3:54 AM on Wednesday 22 Oct 2014 (Local Time) from KNKT Reporting Station
Overcast Overcast  
Wind Chill: 14°   Ceiling: 10000
Heat Index: 14°   Visibility: 10mi
Dew Point:   Wind: 12mph
Humidity: 67%   Direction: 300°WNW
Pressure: 29.86"   Gusts: NA
Location:  34.8973°N, 76.9091°W
Report Text: KNKT 220754Z 30010KT 10SM OVC100 14/08 A2986 RMK AO2 SLP109 T01440083 $
Loading
Personal Weather Stations






























Interactive Weather Map
Tropical Storm Tracking
New forecast layout! Learn more

10-Day Weather Forecast

Advertisements
Track Severe Weather on mobile